createdAt,value
2019-02-15T00:01:25.798Z,102923.92
2019-02-15T00:03:55.488Z,102926.08
2019-02-15T00:06:25.488Z,102925.21
2019-02-15T00:08:55.445Z,102923.05
2019-02-15T00:11:25.141Z,102925.21
2019-02-15T00:13:54.906Z,102929.48
2019-02-15T00:16:25.362Z,102919.61
2019-02-15T00:19:14.078Z,102921.73
2019-02-15T00:21:46.230Z,102917.86
2019-02-15T00:24:16.228Z,102916.12
2019-02-15T00:26:46.637Z,102921.69
2019-02-15T00:29:16.542Z,102916.53
2019-02-15T00:31:47.377Z,102926.41
2019-02-15T00:34:17.066Z,102925.09
2019-02-15T00:36:46.761Z,102921.67
2019-02-15T00:39:16.439Z,102925.50
2019-02-15T00:41:46.117Z,102913.91
2019-02-15T00:44:16.132Z,102916.03
2019-02-15T00:47:03.573Z,102915.61
2019-02-15T00:49:38.457Z,102911.75
2019-02-15T00:52:36.342Z,102910.00
2019-02-15T00:55:12.793Z,102910.83
2019-02-15T00:58:01.536Z,102913.83
2019-02-15T01:00:53.033Z,102918.97
2019-02-15T01:03:40.550Z,102921.95
2019-02-15T01:06:29.248Z,102916.80
2019-02-15T01:09:17.105Z,102920.63
2019-02-15T01:11:51.236Z,102915.05
2019-02-15T01:14:20.930Z,102909.86
2019-02-15T01:16:50.613Z,102902.56
2019-02-15T01:19:20.369Z,102901.27
2019-02-15T01:21:50.149Z,102907.70
2019-02-15T01:24:20.040Z,102912.39
2019-02-15T01:26:53.362Z,102909.81
2019-02-15T01:29:35.109Z,102903.80
2019-02-15T01:32:23.382Z,102911.50
2019-02-15T01:35:03.032Z,102910.64
2019-02-15T01:37:57.482Z,102906.36
2019-02-15T01:40:46.204Z,102899.45
2019-02-15T01:43:39.775Z,102903.69
2019-02-15T01:46:11.918Z,102909.29
2019-02-15T01:48:41.618Z,102900.70
2019-02-15T01:51:11.589Z,102898.13
2019-02-15T01:53:41.281Z,102893.39
2019-02-15T01:56:10.954Z,102888.24
2019-02-15T01:58:40.641Z,102890.36
2019-02-15T02:01:10.337Z,102882.23
2019-02-15T02:03:40.184Z,102886.92
2019-02-15T02:06:09.868Z,102884.33
2019-02-15T02:08:39.638Z,102881.76
2019-02-15T02:11:09.392Z,102875.33
2019-02-15T02:13:49.026Z,102870.19
2019-02-15T02:16:11.481Z,102874.05
2019-02-15T02:18:41.230Z,102870.14
2019-02-15T02:21:10.922Z,102867.56
2019-02-15T02:23:40.596Z,102869.27
2019-02-15T02:26:10.357Z,102861.55
2019-02-15T02:28:40.045Z,102861.09
2019-02-15T02:31:10.768Z,102857.23
2019-02-15T02:33:40.475Z,102856.36
2019-02-15T02:36:10.247Z,102855.95
2019-02-15T02:38:39.960Z,102857.23
2019-02-15T02:41:09.639Z,102849.51
2019-02-15T02:43:39.340Z,102852.91
2019-02-15T02:46:09.095Z,102846.48
2019-02-15T02:48:38.784Z,102848.59
2019-02-15T02:51:08.464Z,102849.88
2019-02-15T02:53:38.151Z,102849.00
2019-02-15T02:56:07.846Z,102846.02
2019-02-15T02:58:37.560Z,102847.72
2019-02-15T03:01:07.380Z,102842.16
2019-02-15T03:03:37.136Z,102840.41
2019-02-15T03:06:07.563Z,102839.13
2019-02-15T03:08:37.248Z,102835.27
2019-02-15T03:11:07.191Z,102835.31
2019-02-15T03:13:36.915Z,102834.03
2019-02-15T03:16:06.896Z,102831.88
2019-02-15T03:18:36.574Z,102832.30
2019-02-15T03:21:06.264Z,102827.60
2019-02-15T03:23:35.938Z,102834.44
2019-02-15T03:26:05.738Z,102832.23
2019-02-15T03:28:35.405Z,102835.20
2019-02-15T03:31:05.148Z,102834.34
2019-02-15T03:33:34.798Z,102833.92
2019-02-15T03:36:05.773Z,102828.38
2019-02-15T03:38:55.052Z,102823.23
2019-02-15T03:41:33.091Z,102826.67
2019-02-15T03:44:02.751Z,102822.82
2019-02-15T03:46:32.466Z,102816.39
2019-02-15T03:49:02.155Z,102814.23
2019-02-15T03:51:31.832Z,102810.79
2019-02-15T03:54:01.572Z,102806.48
2019-02-15T03:56:31.263Z,102809.50
2019-02-15T03:59:01.090Z,102803.91
2019-02-15T04:01:30.932Z,102801.33
2019-02-15T04:04:00.723Z,102801.33
2019-02-15T04:06:30.667Z,102803.45
2019-02-15T04:09:00.356Z,102797.00
2019-02-15T04:11:30.352Z,102794.38
2019-02-15T04:14:00.016Z,102795.22
2019-02-15T04:16:29.869Z,102798.64
2019-02-15T04:18:59.530Z,102801.62
2019-02-15T04:21:29.477Z,102805.89
2019-02-15T04:23:59.529Z,102800.30
2019-02-15T04:26:29.205Z,102805.44
2019-02-15T04:28:59.077Z,102800.75
2019-02-15T04:31:28.746Z,102795.16
2019-02-15T04:33:58.432Z,102803.31
2019-02-15T04:36:28.132Z,102791.71
2019-02-15T04:38:57.813Z,102795.14
2019-02-15T04:41:27.507Z,102797.70
2019-02-15T04:43:57.184Z,102798.11
2019-02-15T04:46:26.944Z,102799.41
2019-02-15T04:48:56.702Z,102793.45
2019-02-15T04:51:26.406Z,102793.05
2019-02-15T04:53:56.082Z,102802.04
2019-02-15T04:56:25.769Z,102801.17
2019-02-15T04:58:55.455Z,102796.44
2019-02-15T05:01:25.216Z,102799.87
2019-02-15T05:03:55.948Z,102799.87
2019-02-15T05:06:25.732Z,102798.53
2019-02-15T05:08:55.403Z,102803.67
2019-02-15T05:11:25.121Z,102803.66
2019-02-15T05:13:54.796Z,102803.66
2019-02-15T05:16:24.718Z,102808.80
2019-02-15T05:18:54.655Z,102798.06
2019-02-15T05:21:24.342Z,102800.21
2019-02-15T05:23:54.018Z,102802.33
2019-02-15T05:26:23.702Z,102798.47
2019-02-15T05:28:55.187Z,102793.33
2019-02-15T05:31:25.102Z,102795.44
2019-02-15T05:33:54.775Z,102801.44
2019-02-15T05:36:24.742Z,102790.65
2019-02-15T05:38:54.481Z,102803.54
2019-02-15T05:41:24.409Z,102798.39
2019-02-15T05:43:54.113Z,102800.09
2019-02-15T05:46:23.804Z,102797.48
2019-02-15T05:48:53.519Z,102798.77
2019-02-15T05:51:23.207Z,102800.45
2019-02-15T05:53:53.144Z,102799.17
2019-02-15T05:56:23.111Z,102787.19
2019-02-15T05:58:53.029Z,102794.02
2019-02-15T06:01:24.304Z,102799.13
2019-02-15T06:03:53.969Z,102793.52
2019-02-15T06:06:25.197Z,102795.17
2019-02-15T06:08:54.887Z,102793.88
2019-02-15T06:11:24.559Z,102790.89
2019-02-15T06:13:54.259Z,102781.91
2019-02-15T06:16:23.956Z,102787.86
2019-02-15T06:18:53.901Z,102789.15
2019-02-15T06:21:23.595Z,102787.45
2019-02-15T06:23:53.276Z,102788.32
2019-02-15T06:26:22.976Z,102785.30
2019-02-15T06:28:52.691Z,102790.02
2019-02-15T06:31:22.380Z,102785.75
2019-02-15T06:33:52.381Z,102780.58
2019-02-15T06:36:22.347Z,102788.73
2019-02-15T06:38:52.026Z,102787.84
2019-02-15T06:41:21.750Z,102785.70
2019-02-15T06:43:51.661Z,102791.24
2019-02-15T06:46:21.329Z,102792.93
2019-02-15T06:48:51.017Z,102789.09
2019-02-15T06:51:20.699Z,102789.13
2019-02-15T06:53:50.387Z,102799.83
2019-02-15T06:56:20.128Z,102798.12
2019-02-15T06:59:08.975Z,102797.23
2019-02-15T07:02:03.999Z,102795.91
2019-02-15T07:04:50.312Z,102801.91
2019-02-15T07:07:19.996Z,102809.15
2019-02-15T07:09:49.924Z,102804.88
2019-02-15T07:12:19.600Z,102803.14
2019-02-15T07:14:49.357Z,102803.58
2019-02-15T07:17:19.044Z,102806.16
2019-02-15T07:19:48.728Z,102798.00
2019-02-15T07:22:18.402Z,102807.86
2019-02-15T07:24:48.158Z,102809.13
2019-02-15T07:27:18.008Z,102808.72
2019-02-15T07:29:47.697Z,102811.72
2019-02-15T07:32:17.393Z,102813.88
2019-02-15T07:34:47.333Z,102810.50
2019-02-15T07:37:17.020Z,102812.23
2019-02-15T07:39:46.794Z,102812.26
2019-02-15T07:42:16.452Z,102812.31
2019-02-15T07:44:46.629Z,102814.07
2019-02-15T07:47:16.315Z,102815.36
2019-02-15T07:49:45.994Z,102817.52
2019-02-15T07:52:15.913Z,102816.25
2019-02-15T07:54:45.611Z,102809.02
2019-02-15T07:57:15.301Z,102809.48
2019-02-15T07:59:44.968Z,102811.66
2019-02-15T08:02:14.958Z,102804.84
2019-02-15T08:04:44.653Z,102804.89
2019-02-15T08:07:14.352Z,102802.33
2019-02-15T08:09:44.027Z,102804.08
2019-02-15T08:12:13.712Z,102796.37
2019-02-15T08:14:43.402Z,102790.00
2019-02-15T08:17:13.082Z,102788.31
2019-02-15T08:19:42.759Z,102787.91
2019-02-15T08:22:12.445Z,102782.36
2019-02-15T08:24:42.419Z,102785.41
2019-02-15T08:27:12.095Z,102779.48
2019-02-15T08:29:41.795Z,102783.34
2019-02-15T08:32:11.483Z,102782.10
2019-02-15T08:34:41.399Z,102780.00
2019-02-15T08:37:11.205Z,102775.31
2019-02-15T08:39:40.871Z,102783.91
2019-02-15T08:42:10.537Z,102775.83
2019-02-15T08:44:40.225Z,102775.01
2019-02-15T08:47:09.961Z,102772.06
2019-02-15T08:49:39.662Z,102769.61
2019-02-15T08:52:09.444Z,102769.61
2019-02-15T08:54:39.089Z,102771.84
2019-02-15T08:57:08.948Z,102773.64
2019-02-15T08:59:38.878Z,102764.72
2019-02-15T09:02:20.566Z,102768.63
2019-02-15T09:04:50.332Z,102765.23
2019-02-15T09:07:20.018Z,102768.72
2019-02-15T09:09:49.708Z,102767.44
2019-02-15T09:12:19.462Z,102759.74
2019-02-15T09:14:49.669Z,102755.91
2019-02-15T09:17:19.598Z,102758.92
2019-02-15T09:19:49.548Z,102755.47
2019-02-15T09:22:19.228Z,102758.91
2019-02-15T09:24:48.908Z,102754.14
2019-02-15T09:27:27.826Z,102758.44
2019-02-15T09:30:00.587Z,102759.67
2019-02-15T09:32:30.348Z,102754.45
2019-02-15T09:35:00.044Z,102753.11
2019-02-15T09:37:29.719Z,102751.38
2019-02-15T09:39:59.390Z,102754.81
2019-02-15T09:42:29.208Z,102754.34
2019-02-15T09:44:59.865Z,102755.57
2019-02-15T09:47:29.546Z,102746.92
2019-02-15T09:49:59.258Z,102752.00
2019-02-15T09:52:28.929Z,102746.77
2019-02-15T09:54:58.653Z,102747.58
2019-02-15T09:57:28.322Z,102750.53
2019-02-15T09:59:58.000Z,102751.30
2019-02-15T10:02:27.664Z,102749.09
2019-02-15T10:04:57.577Z,102744.27
2019-02-15T10:07:27.322Z,102741.98
2019-02-15T10:09:57.550Z,102744.36
2019-02-15T10:12:27.211Z,102752.36
2019-02-15T10:14:56.888Z,102747.41
2019-02-15T10:17:26.562Z,102746.81
2019-02-15T10:19:56.226Z,102747.02
2019-02-15T10:22:25.898Z,102741.53
2019-02-15T10:24:55.562Z,102736.48
2019-02-15T10:27:25.234Z,102731.45
2019-02-15T10:29:55.104Z,102730.80
2019-02-15T10:32:24.792Z,102734.45
2019-02-15T10:34:54.453Z,102738.61
2019-02-15T10:37:24.130Z,102733.67
2019-02-15T10:39:53.801Z,102728.66
2019-02-15T10:42:23.466Z,102720.91
2019-02-15T10:44:53.174Z,102727.95
2019-02-15T10:47:25.244Z,102718.48
2019-02-15T10:49:54.541Z,102715.98
2019-02-15T10:52:24.215Z,102714.72
2019-02-15T10:54:53.919Z,102717.59
2019-02-15T10:57:23.680Z,102715.52
2019-02-15T10:59:53.599Z,102719.70
2019-02-15T11:02:23.276Z,102711.93
2019-02-15T11:04:53.127Z,102713.66
2019-02-15T11:07:22.798Z,102718.88
2019-02-15T11:09:52.461Z,102715.13
2019-02-15T11:12:22.146Z,102710.44
2019-02-15T11:14:51.834Z,102716.33
2019-02-15T11:17:21.802Z,102711.30
2019-02-15T11:19:51.681Z,102705.11
2019-02-15T11:22:21.340Z,102700.06
2019-02-15T11:24:51.024Z,102698.06
2019-02-15T11:27:20.697Z,102693.00
2019-02-15T11:29:50.372Z,102703.23
2019-02-15T11:32:20.081Z,102696.22
2019-02-15T11:34:49.745Z,102692.81
2019-02-15T11:37:19.415Z,102685.44
2019-02-15T11:39:49.263Z,102683.08
2019-02-15T11:42:18.943Z,102680.17
2019-02-15T11:44:48.609Z,102672.84
2019-02-15T11:47:18.281Z,102670.81
2019-02-15T11:49:48.205Z,102676.32
2019-02-15T11:52:17.889Z,102666.87
2019-02-15T11:54:48.103Z,102665.00
2019-02-15T11:57:18.788Z,102654.34
2019-02-15T11:59:48.476Z,102653.17
2019-02-15T12:02:18.155Z,102654.20
2019-02-15T12:04:48.100Z,102655.72
2019-02-15T12:07:18.735Z,102654.39
2019-02-15T12:09:48.411Z,102648.46
2019-02-15T12:12:18.149Z,102647.73
2019-02-15T12:14:48.075Z,102643.21
2019-02-15T12:17:17.743Z,102643.56
2019-02-15T12:19:47.685Z,102640.18
2019-02-15T12:22:18.345Z,102636.81
2019-02-15T12:24:48.024Z,102628.78
2019-02-15T12:27:17.921Z,102631.05
2019-02-15T12:29:47.550Z,102629.34
2019-02-15T12:32:17.261Z,102619.60
2019-02-15T12:34:47.003Z,102620.06
2019-02-15T12:37:17.117Z,102619.97
2019-02-15T12:39:47.759Z,102615.93
2019-02-15T12:42:19.247Z,102615.06
2019-02-15T12:44:49.150Z,102603.30
2019-02-15T12:47:19.002Z,102602.57
2019-02-15T12:49:48.668Z,102599.80
2019-02-15T12:52:18.415Z,102600.99
2019-02-15T12:54:48.097Z,102600.17
2019-02-15T12:57:17.829Z,102590.16
2019-02-15T12:59:47.525Z,102589.83
2019-02-15T13:02:17.358Z,102590.84
2019-02-15T13:04:47.040Z,102580.80
2019-02-15T13:07:16.974Z,102583.09
2019-02-15T13:09:47.616Z,102578.84
2019-02-15T13:12:17.360Z,102571.16
2019-02-15T13:14:47.041Z,102569.74
2019-02-15T13:17:24.436Z,102567.36
2019-02-15T13:19:48.227Z,102567.15
2019-02-15T13:22:20.060Z,102553.28
2019-02-15T13:24:49.429Z,102552.65
2019-02-15T13:27:19.112Z,102546.32
2019-02-15T13:29:49.240Z,102555.39
2019-02-15T13:32:18.901Z,102543.95
2019-02-15T13:34:48.566Z,102541.51
2019-02-15T13:37:18.254Z,102545.46
2019-02-15T13:39:47.960Z,102541.41
2019-02-15T13:42:17.648Z,102531.08
2019-02-15T13:44:47.332Z,102533.70
2019-02-15T13:47:17.085Z,102525.80
2019-02-15T13:49:47.020Z,102523.38
2019-02-15T13:52:17.700Z,102520.08
2019-02-15T13:54:47.367Z,102514.91
2019-02-15T13:57:17.038Z,102515.20
2019-02-15T13:59:46.734Z,102511.91
2019-02-15T14:02:16.400Z,102509.73
2019-02-15T14:04:46.081Z,102506.44
2019-02-15T14:07:19.990Z,102507.03
2019-02-15T14:09:50.024Z,102502.05
2019-02-15T14:12:19.711Z,102498.45
2019-02-15T14:14:50.629Z,102498.73
2019-02-15T14:17:20.312Z,102491.31
2019-02-15T14:19:49.971Z,102491.58
2019-02-15T14:22:19.673Z,102488.58
2019-02-15T14:24:49.346Z,102486.23
2019-02-15T14:27:19.035Z,102481.81
2019-02-15T14:29:48.994Z,102479.53
2019-02-15T14:32:18.675Z,102476.17
2019-02-15T14:34:48.655Z,102470.50
2019-02-15T14:37:18.348Z,102469.58
2019-02-15T14:39:48.014Z,102472.21
2019-02-15T14:42:17.678Z,102465.62
2019-02-15T14:44:47.365Z,102460.81
2019-02-15T14:47:18.074Z,102461.27
2019-02-15T14:49:47.758Z,102460.06
2019-02-15T14:52:17.451Z,102456.96
2019-02-15T14:54:47.151Z,102445.77
2019-02-15T14:57:16.856Z,102451.67
2019-02-15T14:59:46.557Z,102445.84
2019-02-15T15:02:16.227Z,102441.03
2019-02-15T15:04:45.993Z,102443.31
2019-02-15T15:07:15.667Z,102439.43
2019-02-15T15:09:45.377Z,102442.73
2019-02-15T15:12:15.323Z,102434.17
2019-02-15T15:14:44.989Z,102438.39
2019-02-15T15:17:14.659Z,102434.55
2019-02-15T15:19:44.335Z,102428.69
2019-02-15T15:22:14.013Z,102424.94
2019-02-15T15:24:43.741Z,102422.27
2019-02-15T15:27:13.489Z,102418.89
2019-02-15T15:29:43.176Z,102411.25
2019-02-15T15:32:12.852Z,102411.52
2019-02-15T15:34:42.780Z,102405.98
2019-02-15T15:37:16.523Z,102401.19
2019-02-15T15:39:43.863Z,102403.32
2019-02-15T15:42:13.556Z,102397.20
2019-02-15T15:44:43.256Z,102388.77
2019-02-15T15:47:12.944Z,102389.03
2019-02-15T15:49:42.881Z,102385.44
2019-02-15T15:52:12.577Z,102377.53
2019-02-15T15:54:42.324Z,102375.81
2019-02-15T15:57:12.045Z,102373.14
2019-02-15T15:59:41.954Z,102373.59
2019-02-15T16:02:11.626Z,102373.33
2019-02-15T16:04:41.319Z,102373.22
2019-02-15T16:07:11.006Z,102373.35
2019-02-15T16:09:40.674Z,102360.34
2019-02-15T16:12:10.341Z,102360.12
2019-02-15T16:14:41.553Z,102357.88
2019-02-15T16:17:12.200Z,102357.88
2019-02-15T16:19:49.445Z,102358.70
2019-02-15T16:22:14.746Z,102354.59
2019-02-15T16:24:44.433Z,102348.64
2019-02-15T16:27:14.101Z,102355.17
2019-02-15T16:29:43.772Z,102351.66
2019-02-15T16:32:13.458Z,102355.21
2019-02-15T16:34:43.113Z,102352.95
2019-02-15T16:37:13.051Z,102352.83
2019-02-15T16:39:42.748Z,102358.77
2019-02-15T16:42:12.723Z,102349.39
2019-02-15T16:44:42.368Z,102353.62
2019-02-15T16:47:12.038Z,102351.17
2019-02-15T16:49:41.718Z,102356.50
2019-02-15T16:52:11.398Z,102345.55
2019-02-15T16:54:41.919Z,102344.06
2019-02-15T16:57:11.634Z,102343.58
2019-02-15T16:59:41.415Z,102353.91
2019-02-15T17:02:11.184Z,102350.47
2019-02-15T17:04:40.885Z,102350.11
2019-02-15T17:07:10.538Z,102351.09
2019-02-15T17:09:40.454Z,102359.09
2019-02-15T17:12:10.363Z,102354.90
2019-02-15T17:14:40.031Z,102352.84
2019-02-15T17:17:09.707Z,102356.00
2019-02-15T17:19:39.389Z,102360.61
2019-02-15T17:22:09.119Z,102358.19
2019-02-15T17:24:39.027Z,102365.47
2019-02-15T17:27:08.696Z,102361.52
2019-02-15T17:29:38.366Z,102352.98
2019-02-15T17:32:08.052Z,102363.03
2019-02-15T17:34:37.744Z,102357.03
2019-02-15T17:37:07.417Z,102357.12
2019-02-15T17:39:37.119Z,102351.84
2019-02-15T17:42:06.812Z,102357.02
2019-02-15T17:44:36.459Z,102344.77
2019-02-15T17:47:06.371Z,102350.09
2019-02-15T17:49:36.203Z,102347.50
2019-02-15T17:52:05.955Z,102349.03
2019-02-15T17:54:35.657Z,102346.02
2019-02-15T17:57:05.335Z,102342.45
2019-02-15T17:59:36.210Z,102333.75
2019-02-15T18:02:07.675Z,102338.42
2019-02-15T18:04:37.539Z,102334.91
2019-02-15T18:07:07.222Z,102332.66
2019-02-15T18:09:36.912Z,102331.27
2019-02-15T18:12:06.589Z,102327.71
2019-02-15T18:14:36.262Z,102329.28
2019-02-15T18:17:05.954Z,102322.63
2019-02-15T18:19:35.625Z,102326.00
2019-02-15T18:22:05.305Z,102324.97
2019-02-15T18:24:34.975Z,102319.16
2019-02-15T18:27:05.214Z,102317.24
2019-02-15T18:29:34.894Z,102318.41
2019-02-15T18:32:04.915Z,102315.19
2019-02-15T18:34:34.590Z,102312.41
2019-02-15T18:37:04.824Z,102316.99
2019-02-15T18:39:34.543Z,102312.02
2019-02-15T18:42:05.048Z,102307.50
2019-02-15T18:44:34.725Z,102304.22
2019-02-15T18:47:05.413Z,102310.53
2019-02-15T18:49:36.041Z,102314.22
2019-02-15T18:52:05.815Z,102305.85
2019-02-15T18:54:35.479Z,102299.62
2019-02-15T18:57:05.157Z,102304.19
2019-02-15T18:59:34.846Z,102306.52
2019-02-15T19:02:05.192Z,102303.22
2019-02-15T19:04:35.041Z,102304.73
2019-02-15T19:07:06.038Z,102310.91
2019-02-15T19:09:54.094Z,102301.55
2019-02-15T19:12:23.903Z,102290.88
2019-02-15T19:14:53.575Z,102293.27
2019-02-15T19:17:23.245Z,102300.75
2019-02-15T19:19:53.178Z,102292.25
2019-02-15T19:22:23.176Z,102295.00
2019-02-15T19:24:52.858Z,102289.52
2019-02-15T19:27:22.520Z,102284.92
2019-02-15T19:29:52.270Z,102288.92
2019-02-15T19:32:21.964Z,102284.36
2019-02-15T19:34:51.643Z,102281.56
2019-02-15T19:37:22.280Z,102276.56
2019-02-15T19:39:52.035Z,102274.59
2019-02-15T19:42:22.545Z,102269.08
2019-02-15T19:44:52.445Z,102271.00
2019-02-15T19:47:22.120Z,102272.91
2019-02-15T19:49:51.797Z,102266.99
2019-02-15T19:52:21.979Z,102269.25
2019-02-15T19:54:51.752Z,102276.69
2019-02-15T19:57:21.390Z,102267.27
2019-02-15T19:59:53.611Z,102266.97
2019-02-15T20:02:22.690Z,102268.83
2019-02-15T20:04:52.365Z,102258.98
2019-02-15T20:07:22.131Z,102259.54
2019-02-15T20:09:51.803Z,102263.08
2019-02-15T20:12:21.650Z,102255.39
2019-02-15T20:14:51.873Z,102257.64
2019-02-15T20:17:21.530Z,102263.81
2019-02-15T20:19:51.212Z,102258.36
2019-02-15T20:22:20.868Z,102266.73
2019-02-15T20:24:50.779Z,102261.70
2019-02-15T20:27:20.448Z,102252.76
2019-02-15T20:29:50.362Z,102244.67
2019-02-15T20:32:20.023Z,102245.58
2019-02-15T20:34:49.947Z,102244.36
2019-02-15T20:37:19.629Z,102244.91
2019-02-15T20:39:49.303Z,102238.94
2019-02-15T20:42:19.000Z,102233.87
2019-02-15T20:44:48.678Z,102235.28
2019-02-15T20:47:18.349Z,102235.36
2019-02-15T20:49:57.496Z,102226.70
2019-02-15T20:52:20.497Z,102227.09
2019-02-15T20:54:50.172Z,102227.98
2019-02-15T20:57:19.868Z,102224.18
2019-02-15T20:59:51.927Z,102223.03
2019-02-15T21:02:21.607Z,102224.90
2019-02-15T21:04:51.291Z,102227.59
2019-02-15T21:07:21.029Z,102222.06
2019-02-15T21:09:50.706Z,102226.01
2019-02-15T21:12:20.383Z,102229.09
2019-02-15T21:14:50.048Z,102225.68
2019-02-15T21:17:19.730Z,102225.75
2019-02-15T21:19:49.654Z,102227.50
2019-02-15T21:22:19.352Z,102224.52
2019-02-15T21:24:49.034Z,102224.13
2019-02-15T21:27:18.714Z,102227.60
2019-02-15T21:29:48.633Z,102222.46
2019-02-15T21:32:18.302Z,102218.65
2019-02-15T21:34:48.068Z,102211.39
2019-02-15T21:37:17.920Z,102213.58
2019-02-15T21:39:47.589Z,102217.91
2019-02-15T21:42:17.284Z,102217.15
2019-02-15T21:44:47.265Z,102221.06
2019-02-15T21:47:16.961Z,102214.23
2019-02-15T21:49:46.631Z,102212.97
2019-02-15T21:52:16.304Z,102210.47
2019-02-15T21:54:45.984Z,102208.78
2019-02-15T21:57:15.725Z,102203.23
2019-02-15T21:59:45.407Z,102210.63
2019-02-15T22:02:15.073Z,102212.80
2019-02-15T22:04:44.764Z,102203.84
2019-02-15T22:07:14.449Z,102205.57
2019-02-15T22:09:44.168Z,102206.03
2019-02-15T22:12:13.849Z,102200.46
2019-02-15T22:14:43.928Z,102201.78
2019-02-15T22:17:13.603Z,102200.55
2019-02-15T22:19:43.286Z,102197.99
2019-02-15T22:22:12.957Z,102188.61
2019-02-15T22:24:42.633Z,102188.23
2019-02-15T22:27:12.299Z,102183.95
2019-02-15T22:29:42.529Z,102185.70
2019-02-15T22:32:12.460Z,102182.37
2019-02-15T22:34:42.140Z,102179.01
2019-02-15T22:37:11.822Z,102179.48
2019-02-15T22:39:41.555Z,102180.84
2019-02-15T22:42:11.241Z,102180.45
2019-02-15T22:44:41.233Z,102180.08
2019-02-15T22:47:11.151Z,102179.31
2019-02-15T22:49:43.257Z,102178.07
2019-02-15T22:52:12.212Z,102177.27
2019-02-15T22:54:41.890Z,102171.29
2019-02-15T22:57:11.818Z,102178.63
2019-02-15T22:59:41.477Z,102173.05
2019-02-15T23:02:11.902Z,102176.52
2019-02-15T23:04:41.657Z,102170.12
2019-02-15T23:07:12.360Z,102173.58
2019-02-15T23:09:42.055Z,102174.51
2019-02-15T23:12:11.755Z,102171.52
2019-02-15T23:14:41.422Z,102168.96
2019-02-15T23:17:11.099Z,102171.97
2019-02-15T23:19:40.766Z,102164.66
2019-02-15T23:22:10.461Z,102171.55
2019-02-15T23:24:40.137Z,102169.43
2019-02-15T23:27:09.825Z,102169.05
2019-02-15T23:29:39.496Z,102171.67
2019-02-15T23:32:09.240Z,102166.97
2019-02-15T23:34:38.910Z,102169.99
2019-02-15T23:37:09.636Z,102168.27
2019-02-15T23:39:39.311Z,102166.59
2019-02-15T23:42:08.978Z,102163.61
2019-02-15T23:44:38.658Z,102169.62
2019-02-15T23:47:08.339Z,102168.79
2019-02-15T23:49:38.009Z,102165.37
2019-02-15T23:52:07.848Z,102166.69
2019-02-15T23:54:37.518Z,102162.81
2019-02-15T23:57:07.204Z,102160.25
2019-02-15T23:59:36.888Z,102158.11
